sensor_id;sensor_type;location;lat;lon;timestamp;P1;P2;P0
66111;PMS7003;52890;52.490;4.976;2023-02-05T00:00:12;10;10;
66111;PMS7003;52890;52.490;4.976;2023-02-05T00:01:11;12;12;
66111;PMS7003;52890;52.490;4.976;2023-02-05T00:02:11;11;11;
66111;PMS7003;52890;52.490;4.976;2023-02-05T00:03:11;11;13;
66111;PMS7003;52890;52.490;4.976;2023-02-05T00:04:11;9;9;
66111;PMS7003;52890;52.490;4.976;2023-02-05T00:05:11;10;13;
66111;PMS7003;52890;52.490;4.976;2023-02-05T00:06:11;9;9;
66111;PMS7003;52890;52.490;4.976;2023-02-05T00:07:11;9;12;
66111;PMS7003;52890;52.490;4.976;2023-02-05T00:08:11;9;9;
66111;PMS7003;52890;52.490;4.976;2023-02-05T00:09:11;5;7;
66111;PMS7003;52890;52.490;4.976;2023-02-05T00:10:11;8;8;
66111;PMS7003;52890;52.490;4.976;2023-02-05T00:11:12;5;5;
66111;PMS7003;52890;52.490;4.976;2023-02-05T00:12:12;12;12;
66111;PMS7003;52890;52.490;4.976;2023-02-05T00:13:11;5;8;
66111;PMS7003;52890;52.490;4.976;2023-02-05T00:14:11;13;13;
66111;PMS7003;52890;52.490;4.976;2023-02-05T00:15:11;11;11;
66111;PMS7003;52890;52.490;4.976;2023-02-05T00:16:12;9;9;
66111;PMS7003;52890;52.490;4.976;2023-02-05T00:17:12;7;7;
66111;PMS7003;52890;52.490;4.976;2023-02-05T00:18:11;11;16;
66111;PMS7003;52890;52.490;4.976;2023-02-05T00:19:11;12;15;
66111;PMS7003;52890;52.490;4.976;2023-02-05T00:20:11;10;13;
66111;PMS7003;52890;52.490;4.976;2023-02-05T00:21:12;8;13;
66111;PMS7003;52890;52.490;4.976;2023-02-05T00:22:11;11;11;
66111;PMS7003;52890;52.490;4.976;2023-02-05T00:23:11;9;12;
66111;PMS7003;52890;52.490;4.976;2023-02-05T00:24:11;11;11;
66111;PMS7003;52890;52.490;4.976;2023-02-05T00:25:11;9;9;
66111;PMS7003;52890;52.490;4.976;2023-02-05T00:26:12;8;8;
66111;PMS7003;52890;52.490;4.976;2023-02-05T00:27:11;6;6;
66111;PMS7003;52890;52.490;4.976;2023-02-05T00:28:12;6;9;
66111;PMS7003;52890;52.490;4.976;2023-02-05T00:29:11;8;16;
66111;PMS7003;52890;52.490;4.976;2023-02-05T00:30:11;9;9;
66111;PMS7003;52890;52.490;4.976;2023-02-05T00:31:12;8;8;
66111;PMS7003;52890;52.490;4.976;2023-02-05T00:32:11;4;4;
66111;PMS7003;52890;52.490;4.976;2023-02-05T00:33:11;9;9;
66111;PMS7003;52890;52.490;4.976;2023-02-05T00:34:11;7;7;
66111;PMS7003;52890;52.490;4.976;2023-02-05T00:35:11;5;8;
66111;PMS7003;52890;52.490;4.976;2023-02-05T00:36:12;7;7;
66111;PMS7003;52890;52.490;4.976;2023-02-05T00:37:11;7;7;
66111;PMS7003;52890;52.490;4.976;2023-02-05T00:38:11;10;10;
66111;PMS7003;52890;52.490;4.976;2023-02-05T00:39:11;10;10;
66111;PMS7003;52890;52.490;4.976;2023-02-05T00:40:11;7;7;
66111;PMS7003;52890;52.490;4.976;2023-02-05T00:41:12;9;9;
66111;PMS7003;52890;52.490;4.976;2023-02-05T00:42:11;7;7;
66111;PMS7003;52890;52.490;4.976;2023-02-05T00:43:11;10;10;
66111;PMS7003;52890;52.490;4.976;2023-02-05T00:44:12;6;6;
66111;PMS7003;52890;52.490;4.976;2023-02-05T00:45:12;7;7;
66111;PMS7003;52890;52.490;4.976;2023-02-05T00:46:12;6;6;
66111;PMS7003;52890;52.490;4.976;2023-02-05T00:47:11;11;11;
66111;PMS7003;52890;52.490;4.976;2023-02-05T00:48:11;7;7;
66111;PMS7003;52890;52.490;4.976;2023-02-05T00:49:11;8;8;
66111;PMS7003;52890;52.490;4.976;2023-02-05T00:50:11;8;10;
66111;PMS7003;52890;52.490;4.976;2023-02-05T00:51:11;11;11;
66111;PMS7003;52890;52.490;4.976;2023-02-05T00:52:12;7;7;
66111;PMS7003;52890;52.490;4.976;2023-02-05T00:53:11;8;8;
66111;PMS7003;52890;52.490;4.976;2023-02-05T00:54:11;9;9;
66111;PMS7003;52890;52.490;4.976;2023-02-05T00:55:11;9;9;
66111;PMS7003;52890;52.490;4.976;2023-02-05T00:56:11;9;9;
66111;PMS7003;52890;52.490;4.976;2023-02-05T00:57:11;8;8;
66111;PMS7003;52890;52.490;4.976;2023-02-05T00:58:11;4;4;
66111;PMS7003;52890;52.490;4.976;2023-02-05T00:59:11;9;12;
66111;PMS7003;52890;52.490;4.976;2023-02-05T01:00:12;9;9;
66111;PMS7003;52890;52.490;4.976;2023-02-05T01:01:11;7;7;
66111;PMS7003;52890;52.490;4.976;2023-02-05T01:02:11;6;9;
66111;PMS7003;52890;52.490;4.976;2023-02-05T01:03:12;7;7;
66111;PMS7003;52890;52.490;4.976;2023-02-05T01:04:11;9;9;
66111;PMS7003;52890;52.490;4.976;2023-02-05T01:05:11;10;10;
66111;PMS7003;52890;52.490;4.976;2023-02-05T01:06:12;9;9;
66111;PMS7003;52890;52.490;4.976;2023-02-05T01:07:11;8;8;
66111;PMS7003;52890;52.490;4.976;2023-02-05T01:08:12;7;7;
66111;PMS7003;52890;52.490;4.976;2023-02-05T01:09:12;10;10;
66111;PMS7003;52890;52.490;4.976;2023-02-05T01:10:11;7;7;
66111;PMS7003;52890;52.490;4.976;2023-02-05T01:11:11;6;9;
66111;PMS7003;52890;52.490;4.976;2023-02-05T01:12:11;6;7;
66111;PMS7003;52890;52.490;4.976;2023-02-05T01:13:11;8;8;
66111;PMS7003;52890;52.490;4.976;2023-02-05T01:14:11;9;11;
66111;PMS7003;52890;52.490;4.976;2023-02-05T01:15:12;6;6;
66111;PMS7003;52890;52.490;4.976;2023-02-05T01:16:11;8;11;
66111;PMS7003;52890;52.490;4.976;2023-02-05T01:17:11;9;14;
66111;PMS7003;52890;52.490;4.976;2023-02-05T01:18:12;8;8;
66111;PMS7003;52890;52.490;4.976;2023-02-05T01:19:11;7;7;
66111;PMS7003;52890;52.490;4.976;2023-02-05T01:20:12;9;9;
66111;PMS7003;52890;52.490;4.976;2023-02-05T01:21:12;6;9;
66111;PMS7003;52890;52.490;4.976;2023-02-05T01:22:11;4;4;
66111;PMS7003;52890;52.490;4.976;2023-02-05T01:23:11;10;12;
66111;PMS7003;52890;52.490;4.976;2023-02-05T01:24:11;7;7;
66111;PMS7003;52890;52.490;4.976;2023-02-05T01:25:11;5;5;
66111;PMS7003;52890;52.490;4.976;2023-02-05T01:26:11;6;9;
66111;PMS7003;52890;52.490;4.976;2023-02-05T01:27:12;8;8;
66111;PMS7003;52890;52.490;4.976;2023-02-05T01:28:11;7;7;
66111;PMS7003;52890;52.490;4.976;2023-02-05T01:29:12;9;9;
66111;PMS7003;52890;52.490;4.976;2023-02-05T01:30:11;7;7;
66111;PMS7003;52890;52.490;4.976;2023-02-05T01:31:11;8;8;
66111;PMS7003;52890;52.490;4.976;2023-02-05T01:32:11;10;10;
66111;PMS7003;52890;52.490;4.976;2023-02-05T01:33:11;7;7;
66111;PMS7003;52890;52.490;4.976;2023-02-05T01:34:11;8;10;
66111;PMS7003;52890;52.490;4.976;2023-02-05T01:35:11;9;9;
66111;PMS7003;52890;52.490;4.976;2023-02-05T01:36:12;7;7;
66111;PMS7003;52890;52.490;4.976;2023-02-05T01:37:11;8;8;
66111;PMS7003;52890;52.490;4.976;2023-02-05T01:38:12;7;7;
66111;PMS7003;52890;52.490;4.976;2023-02-05T01:39:12;8;8;
66111;PMS7003;52890;52.490;4.976;2023-02-05T01:40:12;11;11;
66111;PMS7003;52890;52.490;4.976;2023-02-05T01:41:12;5;5;
66111;PMS7003;52890;52.490;4.976;2023-02-05T01:42:14;9;9;
66111;PMS7003;52890;52.490;4.976;2023-02-05T01:43:12;9;9;
66111;PMS7003;52890;52.490;4.976;2023-02-05T01:44:12;6;6;
66111;PMS7003;52890;52.490;4.976;2023-02-05T01:45:47;12;12;
66111;PMS7003;52890;52.490;4.976;2023-02-05T01:46:15;4;4;
66111;PMS7003;52890;52.490;4.976;2023-02-05T01:47:11;8;10;
66111;PMS7003;52890;52.490;4.976;2023-02-05T01:48:11;7;7;
66111;PMS7003;52890;52.490;4.976;2023-02-05T01:49:14;8;8;
66111;PMS7003;52890;52.490;4.976;2023-02-05T01:50:12;8;8;
66111;PMS7003;52890;52.490;4.976;2023-02-05T01:51:12;11;13;
66111;PMS7003;52890;52.490;4.976;2023-02-05T01:52:13;8;8;
66111;PMS7003;52890;52.490;4.976;2023-02-05T01:53:12;7;7;
66111;PMS7003;52890;52.490;4.976;2023-02-05T01:54:12;7;7;
66111;PMS7003;52890;52.490;4.976;2023-02-05T01:55:11;8;11;
66111;PMS7003;52890;52.490;4.976;2023-02-05T01:56:13;9;9;
66111;PMS7003;52890;52.490;4.976;2023-02-05T01:57:13;10;10;
66111;PMS7003;52890;52.490;4.976;2023-02-05T01:58:12;7;10;
66111;PMS7003;52890;52.490;4.976;2023-02-05T01:59:13;8;8;
66111;PMS7003;52890;52.490;4.976;2023-02-05T02:00:12;8;11;
66111;PMS7003;52890;52.490;4.976;2023-02-05T02:01:12;10;10;
66111;PMS7003;52890;52.490;4.976;2023-02-05T02:02:12;10;10;
66111;PMS7003;52890;52.490;4.976;2023-02-05T02:03:11;7;7;
66111;PMS7003;52890;52.490;4.976;2023-02-05T02:04:12;5;13;
66111;PMS7003;52890;52.490;4.976;2023-02-05T02:05:13;5;7;
66111;PMS7003;52890;52.490;4.976;2023-02-05T02:06:11;6;6;
66111;PMS7003;52890;52.490;4.976;2023-02-05T02:07:13;6;6;
66111;PMS7003;52890;52.490;4.976;2023-02-05T02:08:12;6;6;
66111;PMS7003;52890;52.490;4.976;2023-02-05T02:09:12;4;4;
66111;PMS7003;52890;52.490;4.976;2023-02-05T02:10:12;6;6;
66111;PMS7003;52890;52.490;4.976;2023-02-05T02:11:12;6;6;
66111;PMS7003;52890;52.490;4.976;2023-02-05T02:12:12;5;5;
66111;PMS7003;52890;52.490;4.976;2023-02-05T02:13:12;4;4;
66111;PMS7003;52890;52.490;4.976;2023-02-05T02:14:11;9;9;
66111;PMS7003;52890;52.490;4.976;2023-02-05T02:15:14;3;3;
66111;PMS7003;52890;52.490;4.976;2023-02-05T02:16:12;5;5;
66111;PMS7003;52890;52.490;4.976;2023-02-05T02:17:12;4;4;
66111;PMS7003;52890;52.490;4.976;2023-02-05T02:18:12;4;4;
66111;PMS7003;52890;52.490;4.976;2023-02-05T02:19:15;6;6;
66111;PMS7003;52890;52.490;4.976;2023-02-05T02:20:12;7;10;
66111;PMS7003;52890;52.490;4.976;2023-02-05T02:21:18;4;4;
66111;PMS7003;52890;52.490;4.976;2023-02-05T02:22:27;6;6;
66111;PMS7003;52890;52.490;4.976;2023-02-05T02:23:15;4;7;
66111;PMS7003;52890;52.490;4.976;2023-02-05T02:24:15;3;3;
66111;PMS7003;52890;52.490;4.976;2023-02-05T02:25:17;6;6;
66111;PMS7003;52890;52.490;4.976;2023-02-05T02:26:15;3;3;
66111;PMS7003;52890;52.490;4.976;2023-02-05T02:27:14;5;8;
66111;PMS7003;52890;52.490;4.976;2023-02-05T02:28:12;5;5;
66111;PMS7003;52890;52.490;4.976;2023-02-05T02:29:13;6;6;
66111;PMS7003;52890;52.490;4.976;2023-02-05T02:30:13;3;3;
66111;PMS7003;52890;52.490;4.976;2023-02-05T02:31:12;6;6;
66111;PMS7003;52890;52.490;4.976;2023-02-05T02:32:13;4;4;
66111;PMS7003;52890;52.490;4.976;2023-02-05T02:33:13;5;5;
66111;PMS7003;52890;52.490;4.976;2023-02-05T02:34:13;5;5;
66111;PMS7003;52890;52.490;4.976;2023-02-05T02:35:13;5;5;
66111;PMS7003;52890;52.490;4.976;2023-02-05T02:36:12;4;4;
66111;PMS7003;52890;52.490;4.976;2023-02-05T02:37:13;5;5;
66111;PMS7003;52890;52.490;4.976;2023-02-05T02:38:14;2;2;
66111;PMS7003;52890;52.490;4.976;2023-02-05T02:39:13;5;8;
66111;PMS7003;52890;52.490;4.976;2023-02-05T02:40:13;3;3;
66111;PMS7003;52890;52.490;4.976;2023-02-05T02:41:12;3;6;
66111;PMS7003;52890;52.490;4.976;2023-02-05T02:42:12;7;7;
66111;PMS7003;52890;52.490;4.976;2023-02-05T02:43:13;7;9;
66111;PMS7003;52890;52.490;4.976;2023-02-05T02:44:13;4;7;
66111;PMS7003;52890;52.490;4.976;2023-02-05T02:45:12;5;5;
66111;PMS7003;52890;52.490;4.976;2023-02-05T02:46:14;4;4;
66111;PMS7003;52890;52.490;4.976;2023-02-05T02:47:13;5;5;
66111;PMS7003;52890;52.490;4.976;2023-02-05T02:48:12;4;4;
66111;PMS7003;52890;52.490;4.976;2023-02-05T02:49:15;3;3;
66111;PMS7003;52890;52.490;4.976;2023-02-05T02:50:12;5;5;
66111;PMS7003;52890;52.490;4.976;2023-02-05T02:51:12;5;5;
66111;PMS7003;52890;52.490;4.976;2023-02-05T02:52:12;4;4;
66111;PMS7003;52890;52.490;4.976;2023-02-05T02:53:13;4;4;
66111;PMS7003;52890;52.490;4.976;2023-02-05T02:54:13;5;5;
66111;PMS7003;52890;52.490;4.976;2023-02-05T02:55:12;6;6;
66111;PMS7003;52890;52.490;4.976;2023-02-05T02:56:12;4;6;
66111;PMS7003;52890;52.490;4.976;2023-02-05T02:57:11;4;4;
66111;PMS7003;52890;52.490;4.976;2023-02-05T02:58:13;4;4;
66111;PMS7003;52890;52.490;4.976;2023-02-05T02:59:12;5;5;
66111;PMS7003;52890;52.490;4.976;2023-02-05T03:00:12;3;3;
66111;PMS7003;52890;52.490;4.976;2023-02-05T03:01:11;5;5;
66111;PMS7003;52890;52.490;4.976;2023-02-05T03:02:12;4;4;
66111;PMS7003;52890;52.490;4.976;2023-02-05T03:03:12;5;5;
66111;PMS7003;52890;52.490;4.976;2023-02-05T03:04:13;6;6;
66111;PMS7003;52890;52.490;4.976;2023-02-05T03:05:13;5;5;
66111;PMS7003;52890;52.490;4.976;2023-02-05T03:06:12;3;3;
66111;PMS7003;52890;52.490;4.976;2023-02-05T03:07:12;5;5;
66111;PMS7003;52890;52.490;4.976;2023-02-05T03:08:13;2;2;
66111;PMS7003;52890;52.490;4.976;2023-02-05T03:09:12;2;2;
66111;PMS7003;52890;52.490;4.976;2023-02-05T03:10:13;3;3;
66111;PMS7003;52890;52.490;4.976;2023-02-05T03:11:12;4;4;
66111;PMS7003;52890;52.490;4.976;2023-02-05T03:12:12;3;3;
66111;PMS7003;52890;52.490;4.976;2023-02-05T03:13:11;3;6;
66111;PMS7003;52890;52.490;4.976;2023-02-05T03:14:12;1;1;
66111;PMS7003;52890;52.490;4.976;2023-02-05T03:15:12;5;5;
66111;PMS7003;52890;52.490;4.976;2023-02-05T03:16:12;2;2;
66111;PMS7003;52890;52.490;4.976;2023-02-05T03:17:12;2;2;
66111;PMS7003;52890;52.490;4.976;2023-02-05T03:18:12;4;4;
66111;PMS7003;52890;52.490;4.976;2023-02-05T03:19:12;2;2;
66111;PMS7003;52890;52.490;4.976;2023-02-05T03:20:13;3;3;
66111;PMS7003;52890;52.490;4.976;2023-02-05T03:21:12;4;4;
66111;PMS7003;52890;52.490;4.976;2023-02-05T03:22:11;1;1;
66111;PMS7003;52890;52.490;4.976;2023-02-05T03:23:12;2;5;
66111;PMS7003;52890;52.490;4.976;2023-02-05T03:24:12;2;2;
66111;PMS7003;52890;52.490;4.976;2023-02-05T03:25:12;2;2;
66111;PMS7003;52890;52.490;4.976;2023-02-05T03:26:28;2;2;
66111;PMS7003;52890;52.490;4.976;2023-02-05T03:27:12;6;6;
66111;PMS7003;52890;52.490;4.976;2023-02-05T03:28:12;3;3;
66111;PMS7003;52890;52.490;4.976;2023-02-05T03:29:12;2;2;
66111;PMS7003;52890;52.490;4.976;2023-02-05T03:30:12;3;3;
66111;PMS7003;52890;52.490;4.976;2023-02-05T03:31:12;4;4;
66111;PMS7003;52890;52.490;4.976;2023-02-05T03:32:14;2;2;
66111;PMS7003;52890;52.490;4.976;2023-02-05T03:33:15;3;3;
66111;PMS7003;52890;52.490;4.976;2023-02-05T03:34:16;4;4;
66111;PMS7003;52890;52.490;4.976;2023-02-05T03:35:15;4;4;
66111;PMS7003;52890;52.490;4.976;2023-02-05T03:36:15;2;2;
66111;PMS7003;52890;52.490;4.976;2023-02-05T03:37:13;1;4;
66111;PMS7003;52890;52.490;4.976;2023-02-05T03:38:18;3;3;
66111;PMS7003;52890;52.490;4.976;2023-02-05T03:39:16;3;5;
66111;PMS7003;52890;52.490;4.976;2023-02-05T03:40:13;2;2;
66111;PMS7003;52890;52.490;4.976;2023-02-05T03:41:13;2;2;
66111;PMS7003;52890;52.490;4.976;2023-02-05T03:42:13;1;1;
66111;PMS7003;52890;52.490;4.976;2023-02-05T03:43:12;3;6;
66111;PMS7003;52890;52.490;4.976;2023-02-05T03:44:12;4;4;
66111;PMS7003;52890;52.490;4.976;2023-02-05T03:45:17;3;3;
66111;PMS7003;52890;52.490;4.976;2023-02-05T03:46:14;1;1;
66111;PMS7003;52890;52.490;4.976;2023-02-05T03:47:14;4;4;
66111;PMS7003;52890;52.490;4.976;2023-02-05T03:48:14;3;3;
66111;PMS7003;52890;52.490;4.976;2023-02-05T03:49:14;2;2;
66111;PMS7003;52890;52.490;4.976;2023-02-05T03:50:14;2;2;
66111;PMS7003;52890;52.490;4.976;2023-02-05T03:51:16;5;7;
66111;PMS7003;52890;52.490;4.976;2023-02-05T03:52:13;3;3;
66111;PMS7003;52890;52.490;4.976;2023-02-05T03:53:13;2;2;
66111;PMS7003;52890;52.490;4.976;2023-02-05T03:54:13;4;7;
66111;PMS7003;52890;52.490;4.976;2023-02-05T03:55:12;4;4;
66111;PMS7003;52890;52.490;4.976;2023-02-05T03:56:12;3;5;
66111;PMS7003;52890;52.490;4.976;2023-02-05T03:57:14;1;1;
66111;PMS7003;52890;52.490;4.976;2023-02-05T03:58:12;4;4;
66111;PMS7003;52890;52.490;4.976;2023-02-05T03:59:11;3;5;
66111;PMS7003;52890;52.490;4.976;2023-02-05T04:01:02;4;4;
66111;PMS7003;52890;52.490;4.976;2023-02-05T04:02:01;3;5;
66111;PMS7003;52890;52.490;4.976;2023-02-05T04:03:02;2;2;
66111;PMS7003;52890;52.490;4.976;2023-02-05T04:04:01;5;8;
66111;PMS7003;52890;52.490;4.976;2023-02-05T04:05:01;4;4;
66111;PMS7003;52890;52.490;4.976;2023-02-05T04:06:01;3;3;
66111;PMS7003;52890;52.490;4.976;2023-02-05T04:07:01;2;2;
66111;PMS7003;52890;52.490;4.976;2023-02-05T04:08:01;3;3;
66111;PMS7003;52890;52.490;4.976;2023-02-05T04:09:01;2;2;
66111;PMS7003;52890;52.490;4.976;2023-02-05T04:10:01;3;3;
66111;PMS7003;52890;52.490;4.976;2023-02-05T04:11:02;4;4;
66111;PMS7003;52890;52.490;4.976;2023-02-05T04:12:01;5;5;
66111;PMS7003;52890;52.490;4.976;2023-02-05T04:13:01;7;7;
66111;PMS7003;52890;52.490;4.976;2023-02-05T04:14:01;2;2;
66111;PMS7003;52890;52.490;4.976;2023-02-05T04:15:02;1;1;
66111;PMS7003;52890;52.490;4.976;2023-02-05T04:16:01;1;1;
66111;PMS7003;52890;52.490;4.976;2023-02-05T04:17:01;5;5;
66111;PMS7003;52890;52.490;4.976;2023-02-05T04:18:01;2;2;
66111;PMS7003;52890;52.490;4.976;2023-02-05T04:19:02;3;3;
66111;PMS7003;52890;52.490;4.976;2023-02-05T04:20:01;1;1;
66111;PMS7003;52890;52.490;4.976;2023-02-05T04:21:01;2;2;
66111;PMS7003;52890;52.490;4.976;2023-02-05T04:22:01;2;2;
66111;PMS7003;52890;52.490;4.976;2023-02-05T04:23:01;1;1;
66111;PMS7003;52890;52.490;4.976;2023-02-05T04:24:01;1;1;
66111;PMS7003;52890;52.490;4.976;2023-02-05T04:25:01;1;1;
66111;PMS7003;52890;52.490;4.976;2023-02-05T04:26:01;2;2;
66111;PMS7003;52890;52.490;4.976;2023-02-05T04:27:01;0;0;
66111;PMS7003;52890;52.490;4.976;2023-02-05T04:28:01;1;1;
66111;PMS7003;52890;52.490;4.976;2023-02-05T04:29:01;2;2;
66111;PMS7003;52890;52.490;4.976;2023-02-05T04:30:01;3;3;
66111;PMS7003;52890;52.490;4.976;2023-02-05T04:31:01;1;1;
66111;PMS7003;52890;52.490;4.976;2023-02-05T04:32:01;0;0;
66111;PMS7003;52890;52.490;4.976;2023-02-05T04:33:01;2;2;
66111;PMS7003;52890;52.490;4.976;2023-02-05T04:34:01;1;1;
66111;PMS7003;52890;52.490;4.976;2023-02-05T04:35:01;1;1;
66111;PMS7003;52890;52.490;4.976;2023-02-05T04:36:01;1;1;
66111;PMS7003;52890;52.490;4.976;2023-02-05T04:37:02;2;2;
66111;PMS7003;52890;52.490;4.976;2023-02-05T04:38:01;1;1;
66111;PMS7003;52890;52.490;4.976;2023-02-05T04:39:01;3;3;
66111;PMS7003;52890;52.490;4.976;2023-02-05T04:40:01;3;3;
66111;PMS7003;52890;52.490;4.976;2023-02-05T04:41:01;0;0;
66111;PMS7003;52890;52.490;4.976;2023-02-05T04:42:01;2;2;
66111;PMS7003;52890;52.490;4.976;2023-02-05T04:43:01;2;2;
66111;PMS7003;52890;52.490;4.976;2023-02-05T04:44:01;4;6;
66111;PMS7003;52890;52.490;4.976;2023-02-05T04:45:02;0;0;
66111;PMS7003;52890;52.490;4.976;2023-02-05T04:46:03;1;1;
66111;PMS7003;52890;52.490;4.976;2023-02-05T04:47:01;1;1;
66111;PMS7003;52890;52.490;4.976;2023-02-05T04:48:01;1;1;
66111;PMS7003;52890;52.490;4.976;2023-02-05T04:49:01;0;0;
66111;PMS7003;52890;52.490;4.976;2023-02-05T04:50:01;0;0;
66111;PMS7003;52890;52.490;4.976;2023-02-05T04:51:04;1;1;
66111;PMS7003;52890;52.490;4.976;2023-02-05T04:52:01;1;1;
66111;PMS7003;52890;52.490;4.976;2023-02-05T04:53:01;1;1;
66111;PMS7003;52890;52.490;4.976;2023-02-05T04:54:01;0;0;
66111;PMS7003;52890;52.490;4.976;2023-02-05T04:55:01;0;7;
66111;PMS7003;52890;52.490;4.976;2023-02-05T04:56:03;0;0;
66111;PMS7003;52890;52.490;4.976;2023-02-05T04:57:01;0;0;
66111;PMS7003;52890;52.490;4.976;2023-02-05T04:58:01;1;1;
66111;PMS7003;52890;52.490;4.976;2023-02-05T04:59:01;0;0;
66111;PMS7003;52890;52.490;4.976;2023-02-05T05:00:05;1;3;
66111;PMS7003;52890;52.490;4.976;2023-02-05T05:01:01;0;0;
66111;PMS7003;52890;52.490;4.976;2023-02-05T05:02:02;0;0;
66111;PMS7003;52890;52.490;4.976;2023-02-05T05:03:01;1;1;
66111;PMS7003;52890;52.490;4.976;2023-02-05T05:04:01;0;3;
66111;PMS7003;52890;52.490;4.976;2023-02-05T05:05:02;0;0;
66111;PMS7003;52890;52.490;4.976;2023-02-05T05:06:02;1;1;
66111;PMS7003;52890;52.490;4.976;2023-02-05T05:07:01;1;1;
66111;PMS7003;52890;52.490;4.976;2023-02-05T05:08:01;1;1;
66111;PMS7003;52890;52.490;4.976;2023-02-05T05:09:01;0;0;
66111;PMS7003;52890;52.490;4.976;2023-02-05T05:10:01;0;0;
66111;PMS7003;52890;52.490;4.976;2023-02-05T05:11:04;0;0;
66111;PMS7003;52890;52.490;4.976;2023-02-05T05:12:01;0;0;
66111;PMS7003;52890;52.490;4.976;2023-02-05T05:13:01;1;1;
66111;PMS7003;52890;52.490;4.976;2023-02-05T05:14:01;0;0;
66111;PMS7003;52890;52.490;4.976;2023-02-05T05:15:01;0;0;
66111;PMS7003;52890;52.490;4.976;2023-02-05T05:16:01;1;1;
66111;PMS7003;52890;52.490;4.976;2023-02-05T05:17:01;0;0;
66111;PMS7003;52890;52.490;4.976;2023-02-05T05:18:01;0;0;
66111;PMS7003;52890;52.490;4.976;2023-02-05T05:19:01;0;0;
66111;PMS7003;52890;52.490;4.976;2023-02-05T05:20:01;0;0;
66111;PMS7003;52890;52.490;4.976;2023-02-05T05:21:43;0;0;
66111;PMS7003;52890;52.490;4.976;2023-02-05T05:22:43;0;0;
66111;PMS7003;52890;52.490;4.976;2023-02-05T05:23:43;0;0;
66111;PMS7003;52890;52.490;4.976;2023-02-05T05:24:44;0;0;
66111;PMS7003;52890;52.490;4.976;2023-02-05T05:25:44;0;0;
66111;PMS7003;52890;52.490;4.976;2023-02-05T05:26:43;0;3;
66111;PMS7003;52890;52.490;4.976;2023-02-05T05:27:43;1;1;
66111;PMS7003;52890;52.490;4.976;2023-02-05T05:28:43;1;1;
66111;PMS7003;52890;52.490;4.976;2023-02-05T05:29:43;0;0;
66111;PMS7003;52890;52.490;4.976;2023-02-05T05:30:44;0;0;
66111;PMS7003;52890;52.490;4.976;2023-02-05T05:31:44;0;0;
66111;PMS7003;52890;52.490;4.976;2023-02-05T05:32:43;0;0;
66111;PMS7003;52890;52.490;4.976;2023-02-05T05:33:44;0;0;
66111;PMS7003;52890;52.490;4.976;2023-02-05T05:34:43;3;3;
66111;PMS7003;52890;52.490;4.976;2023-02-05T05:35:44;0;0;
66111;PMS7003;52890;52.490;4.976;2023-02-05T05:36:43;1;1;
66111;PMS7003;52890;52.490;4.976;2023-02-05T05:37:43;0;0;
66111;PMS7003;52890;52.490;4.976;2023-02-05T05:38:43;0;0;
66111;PMS7003;52890;52.490;4.976;2023-02-05T05:39:43;2;2;
66111;PMS7003;52890;52.490;4.976;2023-02-05T05:40:43;0;0;
66111;PMS7003;52890;52.490;4.976;2023-02-05T05:41:43;0;0;
66111;PMS7003;52890;52.490;4.976;2023-02-05T05:42:43;0;0;
66111;PMS7003;52890;52.490;4.976;2023-02-05T05:43:43;0;0;
66111;PMS7003;52890;52.490;4.976;2023-02-05T05:44:43;0;0;
66111;PMS7003;52890;52.490;4.976;2023-02-05T05:45:43;1;1;
66111;PMS7003;52890;52.490;4.976;2023-02-05T05:46:44;0;0;
66111;PMS7003;52890;52.490;4.976;2023-02-05T05:47:43;0;0;
66111;PMS7003;52890;52.490;4.976;2023-02-05T05:48:43;0;0;
66111;PMS7003;52890;52.490;4.976;2023-02-05T05:49:43;0;0;
66111;PMS7003;52890;52.490;4.976;2023-02-05T05:50:43;1;1;
66111;PMS7003;52890;52.490;4.976;2023-02-05T05:51:44;1;1;
66111;PMS7003;52890;52.490;4.976;2023-02-05T05:52:44;0;0;
66111;PMS7003;52890;52.490;4.976;2023-02-05T05:53:44;0;0;
66111;PMS7003;52890;52.490;4.976;2023-02-05T05:54:43;2;2;
66111;PMS7003;52890;52.490;4.976;2023-02-05T05:55:43;0;0;
66111;PMS7003;52890;52.490;4.976;2023-02-05T05:56:43;0;0;
66111;PMS7003;52890;52.490;4.976;2023-02-05T05:57:44;0;5;
66111;PMS7003;52890;52.490;4.976;2023-02-05T05:58:44;0;0;
66111;PMS7003;52890;52.490;4.976;2023-02-05T05:59:43;0;0;
66111;PMS7003;52890;52.490;4.976;2023-02-05T06:00:44;0;0;
66111;PMS7003;52890;52.490;4.976;2023-02-05T06:01:44;0;0;
66111;PMS7003;52890;52.490;4.976;2023-02-05T06:02:44;0;0;
66111;PMS7003;52890;52.490;4.976;2023-02-05T06:03:43;0;0;
66111;PMS7003;52890;52.490;4.976;2023-02-05T06:04:44;0;0;
66111;PMS7003;52890;52.490;4.976;2023-02-05T06:05:44;0;0;
66111;PMS7003;52890;52.490;4.976;2023-02-05T06:06:44;1;1;
66111;PMS7003;52890;52.490;4.976;2023-02-05T06:07:43;0;4;
66111;PMS7003;52890;52.490;4.976;2023-02-05T06:08:44;0;0;
66111;PMS7003;52890;52.490;4.976;2023-02-05T06:09:43;0;0;
66111;PMS7003;52890;52.490;4.976;2023-02-05T06:10:44;0;0;
66111;PMS7003;52890;52.490;4.976;2023-02-05T06:11:44;0;0;
66111;PMS7003;52890;52.490;4.976;2023-02-05T06:12:43;1;3;
66111;PMS7003;52890;52.490;4.976;2023-02-05T06:13:43;0;0;
66111;PMS7003;52890;52.490;4.976;2023-02-05T06:14:44;0;0;
66111;PMS7003;52890;52.490;4.976;2023-02-05T06:15:43;0;0;
66111;PMS7003;52890;52.490;4.976;2023-02-05T06:16:43;1;1;
66111;PMS7003;52890;52.490;4.976;2023-02-05T06:17:44;0;0;
66111;PMS7003;52890;52.490;4.976;2023-02-05T06:18:43;0;0;
66111;PMS7003;52890;52.490;4.976;2023-02-05T06:19:43;0;0;
66111;PMS7003;52890;52.490;4.976;2023-02-05T06:20:43;3;5;
66111;PMS7003;52890;52.490;4.976;2023-02-05T06:21:44;0;0;
66111;PMS7003;52890;52.490;4.976;2023-02-05T06:22:44;0;0;
66111;PMS7003;52890;52.490;4.976;2023-02-05T06:23:44;0;0;
66111;PMS7003;52890;52.490;4.976;2023-02-05T06:24:43;0;0;
66111;PMS7003;52890;52.490;4.976;2023-02-05T06:25:43;0;0;
66111;PMS7003;52890;52.490;4.976;2023-02-05T06:26:43;2;2;
66111;PMS7003;52890;52.490;4.976;2023-02-05T06:27:44;2;2;
66111;PMS7003;52890;52.490;4.976;2023-02-05T06:28:43;0;0;
66111;PMS7003;52890;52.490;4.976;2023-02-05T06:29:44;0;0;
66111;PMS7003;52890;52.490;4.976;2023-02-05T06:30:44;0;0;
66111;PMS7003;52890;52.490;4.976;2023-02-05T06:31:44;0;0;
66111;PMS7003;52890;52.490;4.976;2023-02-05T06:32:43;0;0;
66111;PMS7003;52890;52.490;4.976;2023-02-05T06:33:43;0;0;
66111;PMS7003;52890;52.490;4.976;2023-02-05T06:34:44;0;0;
66111;PMS7003;52890;52.490;4.976;2023-02-05T06:35:43;0;0;
66111;PMS7003;52890;52.490;4.976;2023-02-05T06:36:44;0;0;
66111;PMS7003;52890;52.490;4.976;2023-02-05T06:37:43;0;0;
66111;PMS7003;52890;52.490;4.976;2023-02-05T06:38:43;2;4;
66111;PMS7003;52890;52.490;4.976;2023-02-05T06:39:44;1;4;
66111;PMS7003;52890;52.490;4.976;2023-02-05T06:40:43;0;0;
66111;PMS7003;52890;52.490;4.976;2023-02-05T06:41:44;1;3;
66111;PMS7003;52890;52.490;4.976;2023-02-05T06:42:43;0;3;
66111;PMS7003;52890;52.490;4.976;2023-02-05T06:43:43;2;2;
66111;PMS7003;52890;52.490;4.976;2023-02-05T06:44:43;0;2;
66111;PMS7003;52890;52.490;4.976;2023-02-05T06:45:44;1;1;
66111;PMS7003;52890;52.490;4.976;2023-02-05T06:46:44;0;0;
66111;PMS7003;52890;52.490;4.976;2023-02-05T06:47:43;0;0;
66111;PMS7003;52890;52.490;4.976;2023-02-05T06:48:43;0;0;
66111;PMS7003;52890;52.490;4.976;2023-02-05T06:49:43;1;1;
66111;PMS7003;52890;52.490;4.976;2023-02-05T06:50:43;0;0;
66111;PMS7003;52890;52.490;4.976;2023-02-05T06:51:43;0;0;